sensor_id;sensor_type;location;lat;lon;timestamp;P1;durP1;ratioP1;P2;durP2;ratioP2
66143;SDS011;52947;50.842;6.084;2023-08-07T00:00:04;8.38;;;2.42;;
66143;SDS011;52947;50.842;6.084;2023-08-07T00:02:35;15.23;;;2.70;;
66143;SDS011;52947;50.842;6.084;2023-08-07T00:05:03;11.98;;;2.70;;
66143;SDS011;52947;50.842;6.084;2023-08-07T00:07:32;13.00;;;3.08;;
66143;SDS011;52947;50.842;6.084;2023-08-07T00:10:00;11.88;;;2.88;;
66143;SDS011;52947;50.842;6.084;2023-08-07T00:12:29;11.85;;;2.53;;
66143;SDS011;52947;50.842;6.084;2023-08-07T00:14:58;16.27;;;2.70;;
66143;SDS011;52947;50.842;6.084;2023-08-07T00:17:27;16.63;;;2.72;;
66143;SDS011;52947;50.842;6.084;2023-08-07T00:19:55;9.45;;;3.08;;
66143;SDS011;52947;50.842;6.084;2023-08-07T00:22:23;11.68;;;2.60;;
66143;SDS011;52947;50.842;6.084;2023-08-07T00:24:52;14.52;;;3.15;;
66143;SDS011;52947;50.842;6.084;2023-08-07T00:27:20;12.07;;;2.40;;
66143;SDS011;52947;50.842;6.084;2023-08-07T00:29:48;7.55;;;2.35;;
66143;SDS011;52947;50.842;6.084;2023-08-07T00:32:17;12.35;;;2.55;;
66143;SDS011;52947;50.842;6.084;2023-08-07T00:37:12;8.95;;;2.50;;
66143;SDS011;52947;50.842;6.084;2023-08-07T00:39:40;10.85;;;2.50;;
66143;SDS011;52947;50.842;6.084;2023-08-07T00:42:09;12.60;;;2.60;;
66143;SDS011;52947;50.842;6.084;2023-08-07T00:44:37;11.68;;;2.35;;
66143;SDS011;52947;50.842;6.084;2023-08-07T00:47:05;8.00;;;2.20;;
66143;SDS011;52947;50.842;6.084;2023-08-07T00:49:35;12.20;;;2.55;;
66143;SDS011;52947;50.842;6.084;2023-08-07T00:52:04;8.50;;;2.08;;
66143;SDS011;52947;50.842;6.084;2023-08-07T00:54:32;10.60;;;2.20;;
66143;SDS011;52947;50.842;6.084;2023-08-07T00:57:02;7.93;;;2.40;;
66143;SDS011;52947;50.842;6.084;2023-08-07T00:59:37;11.73;;;2.83;;
66143;SDS011;52947;50.842;6.084;2023-08-07T01:02:06;8.38;;;2.53;;
66143;SDS011;52947;50.842;6.084;2023-08-07T01:04:35;7.77;;;2.77;;
66143;SDS011;52947;50.842;6.084;2023-08-07T01:09:31;10.05;;;2.70;;
66143;SDS011;52947;50.842;6.084;2023-08-07T01:12:02;6.85;;;2.30;;
66143;SDS011;52947;50.842;6.084;2023-08-07T01:14:40;10.48;;;3.30;;
66143;SDS011;52947;50.842;6.084;2023-08-07T01:17:15;7.43;;;2.50;;
66143;SDS011;52947;50.842;6.084;2023-08-07T01:19:45;8.98;;;2.67;;
66143;SDS011;52947;50.842;6.084;2023-08-07T01:22:17;9.38;;;2.65;;
66143;SDS011;52947;50.842;6.084;2023-08-07T01:24:46;11.18;;;2.35;;
66143;SDS011;52947;50.842;6.084;2023-08-07T01:27:19;11.13;;;2.28;;
66143;SDS011;52947;50.842;6.084;2023-08-07T01:29:54;11.18;;;2.80;;
66143;SDS011;52947;50.842;6.084;2023-08-07T01:32:28;9.70;;;2.38;;
66143;SDS011;52947;50.842;6.084;2023-08-07T01:35:01;11.10;;;3.28;;
66143;SDS011;52947;50.842;6.084;2023-08-07T01:37:33;6.88;;;2.15;;
66143;SDS011;52947;50.842;6.084;2023-08-07T01:40:04;10.15;;;2.42;;
66143;SDS011;52947;50.842;6.084;2023-08-07T01:42:34;8.90;;;2.75;;
66143;SDS011;52947;50.842;6.084;2023-08-07T01:45:03;10.73;;;2.20;;
66143;SDS011;52947;50.842;6.084;2023-08-07T01:47:32;9.70;;;2.35;;
66143;SDS011;52947;50.842;6.084;2023-08-07T01:50:00;16.85;;;3.58;;
66143;SDS011;52947;50.842;6.084;2023-08-07T01:52:28;10.10;;;2.60;;
66143;SDS011;52947;50.842;6.084;2023-08-07T01:54:57;11.82;;;2.45;;
66143;SDS011;52947;50.842;6.084;2023-08-07T01:57:25;11.13;;;2.55;;
66143;SDS011;52947;50.842;6.084;2023-08-07T01:59:53;11.30;;;2.47;;
66143;SDS011;52947;50.842;6.084;2023-08-07T02:02:21;9.55;;;2.10;;
66143;SDS011;52947;50.842;6.084;2023-08-07T02:04:50;7.50;;;2.17;;
66143;SDS011;52947;50.842;6.084;2023-08-07T02:07:19;8.25;;;2.13;;
66143;SDS011;52947;50.842;6.084;2023-08-07T02:09:47;13.15;;;2.63;;
66143;SDS011;52947;50.842;6.084;2023-08-07T02:12:16;6.97;;;2.17;;
66143;SDS011;52947;50.842;6.084;2023-08-07T02:17:12;7.07;;;2.40;;
66143;SDS011;52947;50.842;6.084;2023-08-07T02:19:40;6.97;;;2.10;;
66143;SDS011;52947;50.842;6.084;2023-08-07T02:22:08;15.50;;;3.27;;
66143;SDS011;52947;50.842;6.084;2023-08-07T02:24:36;11.35;;;2.50;;
66143;SDS011;52947;50.842;6.084;2023-08-07T02:27:06;8.02;;;3.03;;
66143;SDS011;52947;50.842;6.084;2023-08-07T02:29:36;7.05;;;2.47;;
66143;SDS011;52947;50.842;6.084;2023-08-07T02:32:04;8.52;;;2.35;;
66143;SDS011;52947;50.842;6.084;2023-08-07T02:34:33;14.68;;;2.28;;
66143;SDS011;52947;50.842;6.084;2023-08-07T02:37:01;9.27;;;2.20;;
66143;SDS011;52947;50.842;6.084;2023-08-07T02:39:29;9.50;;;2.33;;
66143;SDS011;52947;50.842;6.084;2023-08-07T02:41:57;5.68;;;2.08;;
66143;SDS011;52947;50.842;6.084;2023-08-07T02:44:25;8.75;;;2.50;;
66143;SDS011;52947;50.842;6.084;2023-08-07T02:46:55;6.70;;;2.10;;
66143;SDS011;52947;50.842;6.084;2023-08-07T02:49:24;9.77;;;2.40;;
66143;SDS011;52947;50.842;6.084;2023-08-07T02:51:52;7.97;;;2.40;;
66143;SDS011;52947;50.842;6.084;2023-08-07T02:54:20;11.32;;;2.53;;
66143;SDS011;52947;50.842;6.084;2023-08-07T02:56:48;10.05;;;2.92;;
66143;SDS011;52947;50.842;6.084;2023-08-07T02:59:16;5.38;;;2.40;;
66143;SDS011;52947;50.842;6.084;2023-08-07T03:01:44;8.75;;;2.33;;
66143;SDS011;52947;50.842;6.084;2023-08-07T03:04:13;7.20;;;2.15;;
66143;SDS011;52947;50.842;6.084;2023-08-07T03:09:09;6.35;;;2.40;;
66143;SDS011;52947;50.842;6.084;2023-08-07T03:11:37;8.15;;;2.53;;
66143;SDS011;52947;50.842;6.084;2023-08-07T03:14:06;9.60;;;2.83;;
66143;SDS011;52947;50.842;6.084;2023-08-07T03:16:34;8.45;;;2.40;;
66143;SDS011;52947;50.842;6.084;2023-08-07T03:19:02;10.30;;;2.10;;
66143;SDS011;52947;50.842;6.084;2023-08-07T03:21:32;8.30;;;2.40;;
66143;SDS011;52947;50.842;6.084;2023-08-07T03:26:27;9.15;;;2.55;;
66143;SDS011;52947;50.842;6.084;2023-08-07T03:28:55;11.40;;;2.47;;
66143;SDS011;52947;50.842;6.084;2023-08-07T03:31:23;7.07;;;3.15;;
66143;SDS011;52947;50.842;6.084;2023-08-07T03:33:52;8.43;;;2.25;;
66143;SDS011;52947;50.842;6.084;2023-08-07T03:36:21;6.72;;;2.03;;
66143;SDS011;52947;50.842;6.084;2023-08-07T03:41:19;6.78;;;2.63;;
66143;SDS011;52947;50.842;6.084;2023-08-07T03:43:48;6.27;;;2.07;;
66143;SDS011;52947;50.842;6.084;2023-08-07T03:46:15;6.38;;;2.53;;
66143;SDS011;52947;50.842;6.084;2023-08-07T03:48:43;6.88;;;2.00;;
66143;SDS011;52947;50.842;6.084;2023-08-07T03:51:12;10.85;;;2.40;;
66143;SDS011;52947;50.842;6.084;2023-08-07T03:53:45;9.73;;;2.40;;
66143;SDS011;52947;50.842;6.084;2023-08-07T03:56:15;11.00;;;2.35;;
66143;SDS011;52947;50.842;6.084;2023-08-07T04:01:11;7.93;;;2.28;;
66143;SDS011;52947;50.842;6.084;2023-08-07T04:03:40;7.07;;;2.40;;
66143;SDS011;52947;50.842;6.084;2023-08-07T04:06:08;7.38;;;2.45;;
66143;SDS011;52947;50.842;6.084;2023-08-07T04:08:39;9.95;;;2.42;;
66143;SDS011;52947;50.842;6.084;2023-08-07T04:11:07;7.35;;;2.35;;
66143;SDS011;52947;50.842;6.084;2023-08-07T04:13:36;7.73;;;2.50;;
66143;SDS011;52947;50.842;6.084;2023-08-07T04:16:04;5.60;;;1.90;;
66143;SDS011;52947;50.842;6.084;2023-08-07T04:18:33;6.75;;;2.22;;
66143;SDS011;52947;50.842;6.084;2023-08-07T04:21:01;7.88;;;2.88;;
66143;SDS011;52947;50.842;6.084;2023-08-07T04:23:30;8.73;;;2.22;;
66143;SDS011;52947;50.842;6.084;2023-08-07T04:25:58;7.30;;;2.03;;
66143;SDS011;52947;50.842;6.084;2023-08-07T04:28:27;7.68;;;2.33;;
66143;SDS011;52947;50.842;6.084;2023-08-07T04:30:57;6.25;;;2.05;;
66143;SDS011;52947;50.842;6.084;2023-08-07T04:33:25;9.18;;;2.10;;
66143;SDS011;52947;50.842;6.084;2023-08-07T04:35:53;9.50;;;1.98;;
66143;SDS011;52947;50.842;6.084;2023-08-07T04:38:21;7.30;;;2.42;;
66143;SDS011;52947;50.842;6.084;2023-08-07T04:40:49;8.70;;;3.55;;
66143;SDS011;52947;50.842;6.084;2023-08-07T04:43:18;6.57;;;2.00;;
66143;SDS011;52947;50.842;6.084;2023-08-07T04:45:47;5.25;;;1.98;;
66143;SDS011;52947;50.842;6.084;2023-08-07T04:48:17;5.70;;;2.10;;
66143;SDS011;52947;50.842;6.084;2023-08-07T04:50:47;8.18;;;1.92;;
66143;SDS011;52947;50.842;6.084;2023-08-07T04:53:15;7.10;;;2.30;;
66143;SDS011;52947;50.842;6.084;2023-08-07T04:55:43;10.10;;;2.63;;
66143;SDS011;52947;50.842;6.084;2023-08-07T04:58:10;7.30;;;2.38;;
66143;SDS011;52947;50.842;6.084;2023-08-07T05:00:38;11.10;;;2.45;;
66143;SDS011;52947;50.842;6.084;2023-08-07T05:03:06;5.28;;;1.92;;
66143;SDS011;52947;50.842;6.084;2023-08-07T05:05:36;11.30;;;2.33;;
66143;SDS011;52947;50.842;6.084;2023-08-07T05:08:04;5.13;;;1.88;;
66143;SDS011;52947;50.842;6.084;2023-08-07T05:10:32;13.13;;;2.10;;
66143;SDS011;52947;50.842;6.084;2023-08-07T05:13:00;6.40;;;2.20;;
66143;SDS011;52947;50.842;6.084;2023-08-07T05:15:27;3.90;;;1.88;;
66143;SDS011;52947;50.842;6.084;2023-08-07T05:17:57;7.55;;;2.40;;
66143;SDS011;52947;50.842;6.084;2023-08-07T05:20:25;10.50;;;1.98;;
66143;SDS011;52947;50.842;6.084;2023-08-07T05:22:54;9.85;;;2.33;;
66143;SDS011;52947;50.842;6.084;2023-08-07T05:25:23;3.83;;;1.90;;
66143;SDS011;52947;50.842;6.084;2023-08-07T05:27:51;10.68;;;1.83;;
66143;SDS011;52947;50.842;6.084;2023-08-07T05:30:19;6.40;;;2.20;;
66143;SDS011;52947;50.842;6.084;2023-08-07T05:32:47;8.23;;;2.35;;
66143;SDS011;52947;50.842;6.084;2023-08-07T05:35:14;11.15;;;2.50;;
66143;SDS011;52947;50.842;6.084;2023-08-07T05:37:45;6.85;;;2.40;;
66143;SDS011;52947;50.842;6.084;2023-08-07T05:40:14;6.38;;;2.13;;
66143;SDS011;52947;50.842;6.084;2023-08-07T05:42:42;5.72;;;1.98;;
66143;SDS011;52947;50.842;6.084;2023-08-07T05:45:10;4.00;;;2.00;;
66143;SDS011;52947;50.842;6.084;2023-08-07T05:47:38;9.07;;;2.45;;
66143;SDS011;52947;50.842;6.084;2023-08-07T05:50:07;6.25;;;2.15;;
66143;SDS011;52947;50.842;6.084;2023-08-07T05:52:35;9.20;;;2.30;;
66143;SDS011;52947;50.842;6.084;2023-08-07T05:55:03;12.10;;;2.15;;
66143;SDS011;52947;50.842;6.084;2023-08-07T05:57:34;6.55;;;2.30;;
66143;SDS011;52947;50.842;6.084;2023-08-07T06:00:03;7.07;;;1.98;;
66143;SDS011;52947;50.842;6.084;2023-08-07T06:02:37;8.88;;;2.00;;
66143;SDS011;52947;50.842;6.084;2023-08-07T06:05:05;4.50;;;1.63;;
66143;SDS011;52947;50.842;6.084;2023-08-07T06:07:34;7.78;;;2.38;;
66143;SDS011;52947;50.842;6.084;2023-08-07T06:10:02;7.53;;;2.17;;
66143;SDS011;52947;50.842;6.084;2023-08-07T06:12:30;7.80;;;2.10;;
66143;SDS011;52947;50.842;6.084;2023-08-07T06:15:00;10.57;;;2.03;;
66143;SDS011;52947;50.842;6.084;2023-08-07T06:19:55;11.70;;;4.18;;
66143;SDS011;52947;50.842;6.084;2023-08-07T06:22:23;9.88;;;2.53;;
66143;SDS011;52947;50.842;6.084;2023-08-07T06:24:51;6.95;;;2.10;;
66143;SDS011;52947;50.842;6.084;2023-08-07T06:27:20;7.43;;;2.47;;
66143;SDS011;52947;50.842;6.084;2023-08-07T06:32:18;6.80;;;1.98;;
66143;SDS011;52947;50.842;6.084;2023-08-07T06:37:13;12.02;;;2.60;;
66143;SDS011;52947;50.842;6.084;2023-08-07T06:39:41;8.25;;;2.58;;
66143;SDS011;52947;50.842;6.084;2023-08-07T06:42:09;12.20;;;2.80;;
66143;SDS011;52947;50.842;6.084;2023-08-07T06:44:41;8.27;;;2.72;;
66143;SDS011;52947;50.842;6.084;2023-08-07T06:47:08;7.18;;;2.10;;
66143;SDS011;52947;50.842;6.084;2023-08-07T06:49:38;6.47;;;2.33;;
66143;SDS011;52947;50.842;6.084;2023-08-07T06:54:34;7.80;;;2.20;;
66143;SDS011;52947;50.842;6.084;2023-08-07T06:57:02;9.07;;;2.63;;
66143;SDS011;52947;50.842;6.084;2023-08-07T06:59:32;7.70;;;2.25;;
66143;SDS011;52947;50.842;6.084;2023-08-07T07:02:00;5.38;;;1.95;;
66143;SDS011;52947;50.842;6.084;2023-08-07T07:04:29;8.02;;;2.40;;
66143;SDS011;52947;50.842;6.084;2023-08-07T07:06:58;5.93;;;2.28;;
66143;SDS011;52947;50.842;6.084;2023-08-07T07:09:26;7.50;;;2.50;;
66143;SDS011;52947;50.842;6.084;2023-08-07T07:11:55;6.38;;;1.90;;
66143;SDS011;52947;50.842;6.084;2023-08-07T07:14:23;10.43;;;2.15;;
66143;SDS011;52947;50.842;6.084;2023-08-07T07:16:51;4.88;;;2.10;;
66143;SDS011;52947;50.842;6.084;2023-08-07T07:19:19;5.10;;;2.03;;
66143;SDS011;52947;50.842;6.084;2023-08-07T07:21:47;9.25;;;2.35;;
66143;SDS011;52947;50.842;6.084;2023-08-07T07:24:16;13.85;;;2.50;;
66143;SDS011;52947;50.842;6.084;2023-08-07T07:29:12;8.43;;;2.53;;
66143;SDS011;52947;50.842;6.084;2023-08-07T07:31:40;9.85;;;2.00;;
66143;SDS011;52947;50.842;6.084;2023-08-07T07:34:08;6.57;;;2.03;;
66143;SDS011;52947;50.842;6.084;2023-08-07T07:36:36;6.88;;;2.10;;
66143;SDS011;52947;50.842;6.084;2023-08-07T07:39:03;8.40;;;2.60;;
66143;SDS011;52947;50.842;6.084;2023-08-07T07:41:33;6.43;;;2.28;;
66143;SDS011;52947;50.842;6.084;2023-08-07T07:46:28;8.18;;;2.30;;
66143;SDS011;52947;50.842;6.084;2023-08-07T07:51:25;11.35;;;1.95;;
66143;SDS011;52947;50.842;6.084;2023-08-07T07:53:55;7.10;;;2.00;;
66143;SDS011;52947;50.842;6.084;2023-08-07T07:56:42;11.15;;;2.40;;
66143;SDS011;52947;50.842;6.084;2023-08-07T07:59:09;7.90;;;2.15;;
66143;SDS011;52947;50.842;6.084;2023-08-07T08:01:38;10.77;;;2.30;;
66143;SDS011;52947;50.842;6.084;2023-08-07T08:04:06;6.03;;;2.25;;
66143;SDS011;52947;50.842;6.084;2023-08-07T08:06:36;14.60;;;2.55;;
66143;SDS011;52947;50.842;6.084;2023-08-07T08:09:05;4.25;;;1.90;;
66143;SDS011;52947;50.842;6.084;2023-08-07T08:11:36;8.68;;;2.28;;
66143;SDS011;52947;50.842;6.084;2023-08-07T08:14:05;5.67;;;1.93;;
66143;SDS011;52947;50.842;6.084;2023-08-07T08:19:01;8.40;;;2.47;;
66143;SDS011;52947;50.842;6.084;2023-08-07T08:21:29;5.45;;;2.15;;
66143;SDS011;52947;50.842;6.084;2023-08-07T08:23:59;7.88;;;2.08;;
66143;SDS011;52947;50.842;6.084;2023-08-07T08:26:27;6.50;;;2.10;;
66143;SDS011;52947;50.842;6.084;2023-08-07T08:28:55;9.88;;;2.30;;
66143;SDS011;52947;50.842;6.084;2023-08-07T08:31:25;5.30;;;2.03;;
66143;SDS011;52947;50.842;6.084;2023-08-07T08:33:52;4.55;;;2.08;;
66143;SDS011;52947;50.842;6.084;2023-08-07T08:36:20;4.80;;;2.03;;
66143;SDS011;52947;50.842;6.084;2023-08-07T08:38:49;7.53;;;2.90;;
66143;SDS011;52947;50.842;6.084;2023-08-07T08:43:46;13.38;;;2.22;;
66143;SDS011;52947;50.842;6.084;2023-08-07T08:46:17;7.57;;;2.30;;
66143;SDS011;52947;50.842;6.084;2023-08-07T08:48:51;7.22;;;2.08;;
66143;SDS011;52947;50.842;6.084;2023-08-07T08:51:24;6.80;;;2.10;;
66143;SDS011;52947;50.842;6.084;2023-08-07T08:53:52;6.60;;;2.28;;
66143;SDS011;52947;50.842;6.084;2023-08-07T08:56:23;11.10;;;2.45;;
66143;SDS011;52947;50.842;6.084;2023-08-07T08:58:51;8.73;;;2.40;;
66143;SDS011;52947;50.842;6.084;2023-08-07T09:01:20;6.95;;;2.33;;
66143;SDS011;52947;50.842;6.084;2023-08-07T09:03:53;12.48;;;2.53;;
66143;SDS011;52947;50.842;6.084;2023-08-07T09:06:23;4.05;;;1.80;;
66143;SDS011;52947;50.842;6.084;2023-08-07T09:08:51;6.40;;;2.08;;
66143;SDS011;52947;50.842;6.084;2023-08-07T09:11:21;6.82;;;2.33;;
66143;SDS011;52947;50.842;6.084;2023-08-07T09:13:49;8.23;;;2.30;;
66143;SDS011;52947;50.842;6.084;2023-08-07T09:16:17;6.55;;;2.15;;
66143;SDS011;52947;50.842;6.084;2023-08-07T09:18:46;10.25;;;2.58;;
66143;SDS011;52947;50.842;6.084;2023-08-07T09:21:16;9.10;;;2.15;;
66143;SDS011;52947;50.842;6.084;2023-08-07T09:23:45;14.23;;;2.65;;
66143;SDS011;52947;50.842;6.084;2023-08-07T09:26:13;4.15;;;2.03;;
66143;SDS011;52947;50.842;6.084;2023-08-07T09:28:41;5.15;;;2.08;;
66143;SDS011;52947;50.842;6.084;2023-08-07T09:31:08;8.13;;;2.03;;
66143;SDS011;52947;50.842;6.084;2023-08-07T09:33:46;11.68;;;2.83;;
66143;SDS011;52947;50.842;6.084;2023-08-07T09:36:16;6.82;;;2.00;;
66143;SDS011;52947;50.842;6.084;2023-08-07T09:38:49;16.65;;;2.60;;
66143;SDS011;52947;50.842;6.084;2023-08-07T09:41:17;14.68;;;2.00;;
66143;SDS011;52947;50.842;6.084;2023-08-07T09:43:45;10.73;;;2.88;;
66143;SDS011;52947;50.842;6.084;2023-08-07T09:46:13;4.65;;;2.05;;
66143;SDS011;52947;50.842;6.084;2023-08-07T09:48:42;14.98;;;2.00;;
66143;SDS011;52947;50.842;6.084;2023-08-07T09:51:11;6.75;;;1.70;;
66143;SDS011;52947;50.842;6.084;2023-08-07T09:53:40;8.55;;;1.90;;
66143;SDS011;52947;50.842;6.084;2023-08-07T09:56:08;4.47;;;1.63;;
66143;SDS011;52947;50.842;6.084;2023-08-07T09:58:36;4.50;;;1.40;;
66143;SDS011;52947;50.842;6.084;2023-08-07T10:01:04;6.10;;;1.83;;
66143;SDS011;52947;50.842;6.084;2023-08-07T10:06:01;4.38;;;2.03;;
66143;SDS011;52947;50.842;6.084;2023-08-07T10:08:30;6.78;;;2.10;;
66143;SDS011;52947;50.842;6.084;2023-08-07T10:13:29;5.47;;;1.77;;
66143;SDS011;52947;50.842;6.084;2023-08-07T10:16:05;5.47;;;1.77;;
66143;SDS011;52947;50.842;6.084;2023-08-07T10:18:33;7.50;;;2.28;;
66143;SDS011;52947;50.842;6.084;2023-08-07T10:23:32;6.70;;;2.50;;
66143;SDS011;52947;50.842;6.084;2023-08-07T10:26:04;8.35;;;2.20;;
66143;SDS011;52947;50.842;6.084;2023-08-07T10:28:35;6.32;;;1.92;;
66143;SDS011;52947;50.842;6.084;2023-08-07T10:31:05;7.88;;;1.90;;
66143;SDS011;52947;50.842;6.084;2023-08-07T10:33:35;12.05;;;2.30;;
66143;SDS011;52947;50.842;6.084;2023-08-07T10:36:08;11.25;;;2.10;;
66143;SDS011;52947;50.842;6.084;2023-08-07T10:38:36;10.52;;;2.63;;
66143;SDS011;52947;50.842;6.084;2023-08-07T10:41:07;14.48;;;2.63;;
66143;SDS011;52947;50.842;6.084;2023-08-07T10:43:37;6.82;;;2.13;;
66143;SDS011;52947;50.842;6.084;2023-08-07T10:48:40;10.30;;;2.75;;
66143;SDS011;52947;50.842;6.084;2023-08-07T10:51:11;6.78;;;2.00;;
66143;SDS011;52947;50.842;6.084;2023-08-07T10:53:42;4.95;;;2.22;;
66143;SDS011;52947;50.842;6.084;2023-08-07T10:56:18;7.85;;;2.00;;
66143;SDS011;52947;50.842;6.084;2023-08-07T10:58:57;9.55;;;1.90;;
66143;SDS011;52947;50.842;6.084;2023-08-07T11:01:27;6.97;;;2.28;;
66143;SDS011;52947;50.842;6.084;2023-08-07T11:04:07;5.13;;;2.30;;
66143;SDS011;52947;50.842;6.084;2023-08-07T11:06:38;5.47;;;2.13;;
66143;SDS011;52947;50.842;6.084;2023-08-07T11:09:07;10.80;;;2.58;;
66143;SDS011;52947;50.842;6.084;2023-08-07T11:14:07;6.72;;;2.20;;
66143;SDS011;52947;50.842;6.084;2023-08-07T11:16:36;8.35;;;2.10;;
66143;SDS011;52947;50.842;6.084;2023-08-07T11:19:04;7.32;;;2.10;;
66143;SDS011;52947;50.842;6.084;2023-08-07T11:21:32;6.32;;;2.22;;
66143;SDS011;52947;50.842;6.084;2023-08-07T11:24:01;8.35;;;2.20;;
66143;SDS011;52947;50.842;6.084;2023-08-07T11:26:30;8.38;;;2.60;;
66143;SDS011;52947;50.842;6.084;2023-08-07T11:28:59;4.57;;;2.25;;
66143;SDS011;52947;50.842;6.084;2023-08-07T11:31:27;8.65;;;2.08;;
66143;SDS011;52947;50.842;6.084;2023-08-07T11:33:56;6.70;;;2.20;;
66143;SDS011;52947;50.842;6.084;2023-08-07T11:36:25;9.77;;;2.53;;
66143;SDS011;52947;50.842;6.084;2023-08-07T11:38:53;10.25;;;2.33;;
66143;SDS011;52947;50.842;6.084;2023-08-07T11:41:21;6.10;;;2.00;;
66143;SDS011;52947;50.842;6.084;2023-08-07T11:43:49;3.85;;;1.80;;
66143;SDS011;52947;50.842;6.084;2023-08-07T11:46:18;8.30;;;2.38;;
66143;SDS011;52947;50.842;6.084;2023-08-07T11:48:46;3.22;;;1.60;;
66143;SDS011;52947;50.842;6.084;2023-08-07T11:51:14;7.18;;;1.80;;
66143;SDS011;52947;50.842;6.084;2023-08-07T11:53:43;5.07;;;2.30;;
66143;SDS011;52947;50.842;6.084;2023-08-07T11:56:11;6.43;;;2.35;;
66143;SDS011;52947;50.842;6.084;2023-08-07T11:58:42;5.13;;;2.00;;
66143;SDS011;52947;50.842;6.084;2023-08-07T12:01:13;5.53;;;1.98;;
66143;SDS011;52947;50.842;6.084;2023-08-07T12:03:51;8.43;;;2.40;;
66143;SDS011;52947;50.842;6.084;2023-08-07T12:06:21;9.60;;;2.63;;
66143;SDS011;52947;50.842;6.084;2023-08-07T12:08:50;6.32;;;2.28;;
66143;SDS011;52947;50.842;6.084;2023-08-07T12:11:21;7.03;;;2.45;;
66143;SDS011;52947;50.842;6.084;2023-08-07T12:13:49;7.22;;;2.42;;
66143;SDS011;52947;50.842;6.084;2023-08-07T12:16:17;10.77;;;2.40;;
66143;SDS011;52947;50.842;6.084;2023-08-07T12:18:46;7.63;;;2.20;;
66143;SDS011;52947;50.842;6.084;2023-08-07T12:21:17;6.60;;;2.20;;
66143;SDS011;52947;50.842;6.084;2023-08-07T12:23:47;8.40;;;2.08;;
66143;SDS011;52947;50.842;6.084;2023-08-07T12:26:15;6.23;;;2.30;;
66143;SDS011;52947;50.842;6.084;2023-08-07T12:28:43;3.88;;;1.70;;
66143;SDS011;52947;50.842;6.084;2023-08-07T12:31:11;5.30;;;1.90;;
66143;SDS011;52947;50.842;6.084;2023-08-07T12:33:39;8.40;;;2.35;;
66143;SDS011;52947;50.842;6.084;2023-08-07T12:36:07;5.45;;;1.75;;
66143;SDS011;52947;50.842;6.084;2023-08-07T12:38:41;3.95;;;1.77;;
66143;SDS011;52947;50.842;6.084;2023-08-07T12:41:08;4.32;;;1.80;;
66143;SDS011;52947;50.842;6.084;2023-08-07T12:43:57;3.63;;;1.73;;
66143;SDS011;52947;50.842;6.084;2023-08-07T12:46:25;7.43;;;2.08;;
66143;SDS011;52947;50.842;6.084;2023-08-07T12:48:56;3.78;;;1.90;;
66143;SDS011;52947;50.842;6.084;2023-08-07T12:51:24;11.60;;;2.22;;
66143;SDS011;52947;50.842;6.084;2023-08-07T12:53:53;6.15;;;2.10;;
66143;SDS011;52947;50.842;6.084;2023-08-07T12:56:21;5.38;;;1.98;;
66143;SDS011;52947;50.842;6.084;2023-08-07T12:58:49;4.93;;;1.92;;
66143;SDS011;52947;50.842;6.084;2023-08-07T13:01:17;2.93;;;1.70;;
66143;SDS011;52947;50.842;6.084;2023-08-07T13:03:45;5.32;;;1.92;;
66143;SDS011;52947;50.842;6.084;2023-08-07T13:06:13;4.53;;;1.70;;
66143;SDS011;52947;50.842;6.084;2023-08-07T13:08:41;2.55;;;1.70;;
66143;SDS011;52947;50.842;6.084;2023-08-07T13:11:10;7.30;;;1.90;;
66143;SDS011;52947;50.842;6.084;2023-08-07T13:13:38;4.65;;;1.80;;
66143;SDS011;52947;50.842;6.084;2023-08-07T13:16:06;4.17;;;1.60;;
66143;SDS011;52947;50.842;6.084;2023-08-07T13:18:34;2.53;;;1.70;;
66143;SDS011;52947;50.842;6.084;2023-08-07T13:21:02;4.95;;;1.88;;
66143;SDS011;52947;50.842;6.084;2023-08-07T13:23:30;3.20;;;1.85;;
66143;SDS011;52947;50.842;6.084;2023-08-07T13:25:58;3.70;;;1.83;;
66143;SDS011;52947;50.842;6.084;2023-08-07T13:28:28;4.45;;;1.42;;
66143;SDS011;52947;50.842;6.084;2023-08-07T13:30:56;3.80;;;1.70;;
66143;SDS011;52947;50.842;6.084;2023-08-07T13:33:24;4.20;;;1.77;;
66143;SDS011;52947;50.842;6.084;2023-08-07T13:35:52;4.05;;;1.63;;
66143;SDS011;52947;50.842;6.084;2023-08-07T13:38:20;3.35;;;1.80;;
66143;SDS011;52947;50.842;6.084;2023-08-07T13:40:48;2.92;;;1.35;;
66143;SDS011;52947;50.842;6.084;2023-08-07T13:43:17;3.50;;;1.63;;
66143;SDS011;52947;50.842;6.084;2023-08-07T13:45:46;3.10;;;1.60;;
66143;SDS011;52947;50.842;6.084;2023-08-07T13:48:16;2.58;;;1.70;;
66143;SDS011;52947;50.842;6.084;2023-08-07T13:50:44;3.47;;;1.70;;
66143;SDS011;52947;50.842;6.084;2023-08-07T13:53:13;2.08;;;1.20;;
66143;SDS011;52947;50.842;6.084;2023-08-07T13:55:42;6.07;;;1.50;;
66143;SDS011;52947;50.842;6.084;2023-08-07T13:58:11;3.30;;;1.45;;
66143;SDS011;52947;50.842;6.084;2023-08-07T14:00:41;4.97;;;1.50;;
66143;SDS011;52947;50.842;6.084;2023-08-07T14:03:11;4.70;;;1.70;;
66143;SDS011;52947;50.842;6.084;2023-08-07T14:05:40;4.65;;;1.60;;
66143;SDS011;52947;50.842;6.084;2023-08-07T14:08:08;2.28;;;1.58;;
66143;SDS011;52947;50.842;6.084;2023-08-07T14:10:37;2.80;;;1.40;;
66143;SDS011;52947;50.842;6.084;2023-08-07T14:13:07;2.28;;;1.38;;
66143;SDS011;52947;50.842;6.084;2023-08-07T14:15:36;6.22;;;1.63;;
66143;SDS011;52947;50.842;6.084;2023-08-07T14:18:04;5.83;;;1.93;;
66143;SDS011;52947;50.842;6.084;2023-08-07T14:20:33;3.97;;;1.30;;
66143;SDS011;52947;50.842;6.084;2023-08-07T14:23:21;2.72;;;1.33;;
66143;SDS011;52947;50.842;6.084;2023-08-07T14:25:49;2.05;;;1.10;;
66143;SDS011;52947;50.842;6.084;2023-08-07T14:28:19;3.55;;;1.40;;
66143;SDS011;52947;50.842;6.084;2023-08-07T14:30:47;2.73;;;1.30;;
66143;SDS011;52947;50.842;6.084;2023-08-07T14:33:15;2.53;;;1.35;;
66143;SDS011;52947;50.842;6.084;2023-08-07T14:35:45;3.53;;;1.50;;
66143;SDS011;52947;50.842;6.084;2023-08-07T14:38:13;2.45;;;1.25;;
66143;SDS011;52947;50.842;6.084;2023-08-07T14:40:41;1.63;;;1.37;;
66143;SDS011;52947;50.842;6.084;2023-08-07T14:43:10;1.50;;;1.30;;
66143;SDS011;52947;50.842;6.084;2023-08-07T14:45:38;1.23;;;1.13;;
66143;SDS011;52947;50.842;6.084;2023-08-07T14:48:06;2.53;;;1.30;;
66143;SDS011;52947;50.842;6.084;2023-08-07T14:50:34;4.63;;;1.20;;
66143;SDS011;52947;50.842;6.084;2023-08-07T14:53:03;3.50;;;1.23;;
66143;SDS011;52947;50.842;6.084;2023-08-07T14:55:31;2.28;;;1.25;;
66143;SDS011;52947;50.842;6.084;2023-08-07T14:57:59;2.28;;;1.40;;
66143;SDS011;52947;50.842;6.084;2023-08-07T15:00:27;5.65;;;1.33;;
66143;SDS011;52947;50.842;6.084;2023-08-07T15:02:56;2.55;;;1.45;;
66143;SDS011;52947;50.842;6.084;2023-08-07T15:05:25;5.72;;;1.48;;
66143;SDS011;52947;50.842;6.084;2023-08-07T15:07:53;4.28;;;1.13;;
66143;SDS011;52947;50.842;6.084;2023-08-07T15:10:22;1.98;;;1.17;;
66143;SDS011;52947;50.842;6.084;2023-08-07T15:12:50;1.55;;;1.17;;
66143;SDS011;52947;50.842;6.084;2023-08-07T15:15:18;1.55;;;1.25;;
66143;SDS011;52947;50.842;6.084;2023-08-07T15:17:46;2.22;;;1.15;;
66143;SDS011;52947;50.842;6.084;2023-08-07T15:20:14;4.00;;;1.30;;
66143;SDS011;52947;50.842;6.084;2023-08-07T15:22:42;1.23;;;1.05;;
66143;SDS011;52947;50.842;6.084;2023-08-07T15:25:10;2.38;;;1.13;;
66143;SDS011;52947;50.842;6.084;2023-08-07T15:27:39;3.20;;;1.30;;
66143;SDS011;52947;50.842;6.084;2023-08-07T15:30:08;1.77;;;1.30;;
66143;SDS011;52947;50.842;6.084;2023-08-07T15:32:37;1.25;;;1.08;;
66143;SDS011;52947;50.842;6.084;2023-08-07T15:35:07;1.73;;;1.33;;
66143;SDS011;52947;50.842;6.084;2023-08-07T15:37:36;3.15;;;1.20;;
66143;SDS011;52947;50.842;6.084;2023-08-07T15:40:05;2.17;;;1.30;;
66143;SDS011;52947;50.842;6.084;2023-08-07T15:42:34;2.55;;;1.30;;
66143;SDS011;52947;50.842;6.084;2023-08-07T15:45:03;2.50;;;1.20;;
66143;SDS011;52947;50.842;6.084;2023-08-07T15:47:32;2.10;;;1.20;;